CheckWX is a tool to help pilots better visualize weather data.  It is not intended as a substitute for an official pre-flight weather briefing.

11:33:05 UTC

KIFP TAF
Laughlin / Bullhead International Airport
Bullhead City, Arizona, USA
KIFP 140520Z 1406/1506 VRB04KT P6SM SKC FM141600 35008KT P6SM SKC FM142000 22006KT P6SM SKC FM150300 06006KT P6SM SKC

Oct-14@
06:00 UTC

Oct-14 @ 06:00 UTC

Oct-14@
16:00 UTC

Oct-14 @ 16:00 UTC

KIFP 140520Z 1406/1506 VRB04KT P6SM SKC
Wind
  • Variable at 4 KTS
Cloud Levels
  • Clear skies

Oct-14@
16:00 UTC

Oct-14 @ 16:00 UTC

Oct-14@
20:00 UTC

Oct-14 @ 20:00 UTC

FM141600 35008KT P6SM SKC

From

From Standard forecast or significant change

Wind
  • 350° at 8 KTS
Cloud Levels
  • Clear skies

Oct-14@
20:00 UTC

Oct-14 @ 20:00 UTC

Oct-15@
03:00 UTC

Oct-15 @ 03:00 UTC

FM142000 22006KT P6SM SKC

From

From Standard forecast or significant change

Wind
  • 220° at 6 KTS
Cloud Levels
  • Clear skies

Oct-15@
03:00 UTC

Oct-15 @ 03:00 UTC

Oct-15@
06:00 UTC

Oct-15 @ 06:00 UTC

FM150300 06006KT P6SM SKC

From

From Standard forecast or significant change

Wind
  • 060° at 6 KTS
Cloud Levels
  • Clear skies